createdAt,value
2022-10-14T00:00:35.914Z,-10603.81
2022-10-14T00:01:38.031Z,-10603.81
2022-10-14T00:02:40.233Z,-10604.53
2022-10-14T00:03:43.183Z,-9625.66
2022-10-14T00:04:45.715Z,-9626.41
2022-10-14T00:05:48.493Z,-10275.56
2022-10-14T00:06:50.623Z,-11254.31
2022-10-14T00:07:52.785Z,-11255.63
2022-10-14T00:08:55.985Z,-11258.87
2022-10-14T00:09:58.121Z,-10279.38
2022-10-14T00:11:08.233Z,-10932.16
2022-10-14T00:12:10.358Z,-10277.78
2022-10-14T00:13:12.603Z,-9953.09
2022-10-14T00:14:19.692Z,-10281.69
2022-10-14T00:15:24.793Z,-9950.56
2022-10-14T00:16:31.271Z,-11581.38
2022-10-14T00:17:33.504Z,-10927.50
2022-10-14T00:18:35.883Z,-10601.75
2022-10-14T00:19:38.060Z,-9946.84
2022-10-14T00:20:40.295Z,-11578.50
2022-10-14T00:21:44.532Z,-12234.69
2022-10-14T00:22:46.792Z,-10601.97
2022-10-14T00:23:49.256Z,-10602.78
2022-10-14T00:24:51.409Z,-10929.00
2022-10-14T00:25:53.901Z,-11254.53
2022-10-14T00:26:59.047Z,-10602.38
2022-10-14T00:28:03.540Z,-10276.47
2022-10-14T00:29:13.264Z,-11906.88
2022-10-14T00:30:15.781Z,-11252.03
2022-10-14T00:31:18.396Z,-11579.59
2022-10-14T00:32:22.695Z,-11254.31
2022-10-14T00:33:28.827Z,-10606.09
2022-10-14T00:34:36.803Z,-10277.56
2022-10-14T00:35:39.656Z,-9952.50
2022-10-14T00:36:42.619Z,-10279.59
2022-10-14T00:37:49.074Z,-10276.56
2022-10-14T00:38:52.789Z,-10607.44
2022-10-14T00:39:57.167Z,-9954.66
2022-10-14T00:41:00.319Z,-8650.91
2022-10-14T00:42:02.532Z,-8977.59
2022-10-14T00:43:04.661Z,-8651.44
2022-10-14T00:44:15.519Z,-9960.22
2022-10-14T00:45:23.898Z,-9959.34
2022-10-14T00:46:28.599Z,-8977.97
2022-10-14T00:47:36.368Z,-8323.56
2022-10-14T00:48:43.318Z,-8975.97
2022-10-14T00:49:45.434Z,-9302.06
2022-10-14T00:50:53.125Z,-9632.78
2022-10-14T00:52:05.699Z,-9961.31
2022-10-14T00:53:11.399Z,-8978.69
2022-10-14T00:54:17.595Z,-9307.34
2022-10-14T00:55:20.567Z,-8651.53
2022-10-14T00:56:27.229Z,-8655.19
2022-10-14T00:57:30.692Z,-8000.13
2022-10-14T00:58:32.935Z,-7998.97
2022-10-14T00:59:35.182Z,-7999.22
2022-10-14T01:00:39.216Z,-8000.78
2022-10-14T01:01:41.583Z,-7347.91
2022-10-14T01:02:43.799Z,-7021.66
2022-10-14T01:03:46.066Z,-6042.19
2022-10-14T01:04:49.599Z,-6369.03
2022-10-14T01:06:04.175Z,-7351.25
2022-10-14T01:07:30.505Z,-7025.06
2022-10-14T01:09:01.723Z,-7351.72
2022-10-14T01:10:14.105Z,-6374.09
2022-10-14T01:11:22.025Z,-5066.44
2022-10-14T01:12:33.590Z,-5720.22
2022-10-14T01:13:45.193Z,-6046.34
2022-10-14T01:15:35.508Z,-6373.56
2022-10-14T01:16:53.969Z,-6372.38
2022-10-14T01:18:22.495Z,-6698.38
2022-10-14T01:19:40.126Z,-7025.22
2022-10-14T01:21:12.913Z,-7351.25
2022-10-14T01:22:35.186Z,-6699.59
2022-10-14T01:24:05.270Z,-6041.50
2022-10-14T01:25:16.364Z,-7351.56
2022-10-14T01:26:59.712Z,-7351.41
2022-10-14T01:28:07.925Z,-6040.38
2022-10-14T01:29:40.512Z,-8329.31
2022-10-14T01:30:48.054Z,-8326.78
2022-10-14T01:32:16.429Z,-8003.91
2022-10-14T01:33:26.906Z,-7023.50
2022-10-14T01:34:37.793Z,-7022.91
2022-10-14T01:35:50.971Z,-8001.50
2022-10-14T01:37:01.262Z,-7675.69
2022-10-14T01:38:32.174Z,-8330.00
2022-10-14T01:39:42.655Z,-7020.31
2022-10-14T01:40:55.378Z,-7996.19
2022-10-14T01:42:03.798Z,-9304.94
2022-10-14T01:43:06.394Z,-8324.16
2022-10-14T01:44:11.026Z,-8978.69
2022-10-14T01:45:20.162Z,-8326.28
2022-10-14T01:46:25.607Z,-8325.94
2022-10-14T01:47:32.902Z,-7676.47
2022-10-14T01:48:38.962Z,-6371.16
2022-10-14T01:49:49.883Z,-7350.34
2022-10-14T01:50:53.772Z,-5720.22
2022-10-14T01:52:13.749Z,-6699.25
2022-10-14T01:53:25.017Z,-6698.66
2022-10-14T01:54:38.745Z,-5393.56
2022-10-14T01:55:44.395Z,-5392.66
2022-10-14T01:56:48.266Z,-5391.88
2022-10-14T01:57:53.661Z,-5065.72
2022-10-14T01:58:57.662Z,-5065.03
2022-10-14T02:00:01.326Z,-5064.56
2022-10-14T02:01:09.014Z,-6046.88
2022-10-14T02:02:14.218Z,-5720.22
2022-10-14T02:03:16.648Z,-5062.88
2022-10-14T02:04:21.575Z,-5717.25
2022-10-14T02:05:36.614Z,-7026.16
2022-10-14T02:06:43.319Z,-5719.28
2022-10-14T02:07:55.783Z,-5393.44
2022-10-14T02:09:12.681Z,-5067.69
2022-10-14T02:10:23.821Z,-4087.88
2022-10-14T02:11:27.670Z,-3105.88
2022-10-14T02:12:39.063Z,-4741.41
2022-10-14T02:13:56.361Z,-4087.97
2022-10-14T02:15:07.422Z,-4414.53
2022-10-14T02:16:43.346Z,-4415.19
2022-10-14T02:18:00.716Z,-4740.41
2022-10-14T02:19:08.338Z,-4739.53
2022-10-14T02:20:23.994Z,-5066.78
2022-10-14T02:21:36.463Z,-4087.56
2022-10-14T02:22:43.395Z,-3433.25
2022-10-14T02:24:02.329Z,-4086.41
2022-10-14T02:25:15.303Z,-4086.47
2022-10-14T02:26:18.731Z,-4084.09
2022-10-14T02:27:24.630Z,-4412.53
2022-10-14T02:28:29.622Z,-4086.06
2022-10-14T02:29:34.218Z,-3104.56
2022-10-14T02:30:41.968Z,-4412.97
2022-10-14T02:31:45.587Z,-3431.81
2022-10-14T02:32:50.702Z,-3430.75
2022-10-14T02:33:58.426Z,-4412.53
2022-10-14T02:35:01.924Z,-4084.34
2022-10-14T02:36:07.640Z,-4412.06
2022-10-14T02:37:13.040Z,-4738.81
2022-10-14T02:38:18.009Z,-4737.09
2022-10-14T02:39:32.815Z,-5718.94
2022-10-14T02:40:44.564Z,-5719.91
2022-10-14T02:41:46.963Z,-3430.91
2022-10-14T02:42:49.317Z,-4083.44
2022-10-14T02:43:51.773Z,-4410.22
2022-10-14T02:44:57.183Z,-4738.41
2022-10-14T02:46:02.874Z,-4085.16
2022-10-14T02:47:05.234Z,-3756.06
2022-10-14T02:48:07.662Z,-5388.69
2022-10-14T02:49:12.848Z,-4735.75
2022-10-14T02:50:15.060Z,-5388.63
2022-10-14T02:51:17.774Z,-5388.94
2022-10-14T02:52:20.462Z,-5715.28
2022-10-14T02:53:23.321Z,-4736.66
2022-10-14T02:54:25.544Z,-4736.53
2022-10-14T02:55:27.827Z,-4083.34
2022-10-14T02:56:30.107Z,-4409.78
2022-10-14T02:57:35.517Z,-4410.09
2022-10-14T02:58:37.614Z,-4736.19
2022-10-14T02:59:40.228Z,-5062.94
2022-10-14T03:00:42.537Z,-4410.31
2022-10-14T03:01:45.067Z,-3757.63
2022-10-14T03:02:48.458Z,-3104.66
2022-10-14T03:03:52.706Z,-2778.25
2022-10-14T03:04:54.842Z,-2123.16
2022-10-14T03:05:58.112Z,-3757.00
2022-10-14T03:07:01.527Z,-3104.03
2022-10-14T03:08:03.872Z,-3104.16
2022-10-14T03:09:08.236Z,-3103.59
2022-10-14T03:10:13.916Z,-4083.44
2022-10-14T03:11:16.479Z,-4410.00
2022-10-14T03:12:19.909Z,-4736.47
2022-10-14T03:13:23.477Z,-4408.50
2022-10-14T03:14:25.665Z,-4410.09
2022-10-14T03:15:28.815Z,-4083.66
2022-10-14T03:16:30.992Z,-3102.16
2022-10-14T03:17:33.894Z,-5387.78
2022-10-14T03:18:39.836Z,-5062.34
2022-10-14T03:19:52.405Z,-4735.53
2022-10-14T03:20:55.230Z,-5062.13
2022-10-14T03:22:03.453Z,-4083.25
2022-10-14T03:23:06.126Z,-3430.66
2022-10-14T03:24:11.067Z,-3429.94
2022-10-14T03:25:13.448Z,-3756.91
2022-10-14T03:26:34.105Z,-4082.19
2022-10-14T03:27:36.207Z,-5386.50
2022-10-14T03:28:43.358Z,-5709.69
2022-10-14T03:29:52.182Z,-9622.22
2022-10-14T03:30:58.361Z,-8973.47
2022-10-14T03:32:16.381Z,-7669.59
2022-10-14T03:33:37.261Z,-6692.38
2022-10-14T03:34:43.724Z,-7017.88
2022-10-14T03:35:50.729Z,-7018.16
2022-10-14T03:36:58.246Z,-7342.81
2022-10-14T03:38:03.320Z,-7669.19
2022-10-14T03:39:10.518Z,-9299.94
2022-10-14T03:40:22.888Z,-8321.78
2022-10-14T03:41:26.238Z,-7997.00
2022-10-14T03:42:28.502Z,-7670.78
2022-10-14T03:43:31.148Z,-7342.53
2022-10-14T03:44:34.470Z,-7670.69
2022-10-14T03:45:48.757Z,-6691.97
2022-10-14T03:46:54.019Z,-7018.63
2022-10-14T03:48:03.789Z,-7017.88
2022-10-14T03:49:06.125Z,-7344.13
2022-10-14T03:50:08.969Z,-8317.97
2022-10-14T03:51:22.227Z,-8971.94
2022-10-14T03:52:24.789Z,-8645.59
2022-10-14T03:53:37.458Z,-8974.00
2022-10-14T03:54:40.622Z,-8321.53
2022-10-14T03:55:43.120Z,-8972.75
2022-10-14T03:56:45.888Z,-8974.00
2022-10-14T03:57:49.137Z,-8646.56
2022-10-14T03:58:51.913Z,-8971.66
2022-10-14T03:59:54.598Z,-9299.19
2022-10-14T04:00:59.619Z,-7666.09
2022-10-14T04:02:10.156Z,-9298.09
2022-10-14T04:03:15.312Z,-8973.56
2022-10-14T04:04:19.026Z,-8646.63
2022-10-14T04:05:21.909Z,-9298.81
2022-10-14T04:06:25.163Z,-8974.72
2022-10-14T04:07:31.739Z,-8649.09
2022-10-14T04:08:35.103Z,-8648.22
2022-10-14T04:09:49.152Z,-8320.78
2022-10-14T04:10:55.230Z,-9302.72
2022-10-14T04:11:58.586Z,-8319.34
2022-10-14T04:13:21.688Z,-9949.09
2022-10-14T04:14:25.058Z,-10277.78
2022-10-14T04:15:27.798Z,-9300.50
2022-10-14T04:16:50.054Z,-8323.41
2022-10-14T04:17:52.949Z,-9623.75
2022-10-14T04:18:55.161Z,-9299.94
2022-10-14T04:19:58.141Z,-7996.75
2022-10-14T04:21:03.374Z,-8323.56
2022-10-14T04:22:06.453Z,-8321.88
2022-10-14T04:23:09.530Z,-8319.75
2022-10-14T04:24:15.374Z,-9300.22
2022-10-14T04:25:22.077Z,-9297.91
2022-10-14T04:26:28.603Z,-8647.16
2022-10-14T04:27:30.913Z,-8322.38
2022-10-14T04:28:39.062Z,-7671.41
2022-10-14T04:29:47.847Z,-7344.50
2022-10-14T04:30:57.188Z,-7667.84
2022-10-14T04:32:03.697Z,-8321.72
2022-10-14T04:33:06.238Z,-8322.38
2022-10-14T04:34:10.765Z,-7998.16
2022-10-14T04:35:14.977Z,-7996.59
2022-10-14T04:36:20.015Z,-7667.91
2022-10-14T04:37:22.207Z,-9620.03
2022-10-14T04:38:36.213Z,-11573.63
2022-10-14T04:39:41.814Z,-11250.19
2022-10-14T04:40:45.024Z,-11249.00
2022-10-14T04:41:47.302Z,-11251.94
2022-10-14T04:42:56.682Z,-11258.75
2022-10-14T04:44:03.447Z,-9621.84
2022-10-14T04:45:14.860Z,-9621.47
2022-10-14T04:46:21.870Z,-9948.59
2022-10-14T04:47:24.239Z,-8964.19
2022-10-14T04:48:30.995Z,-13196.09
2022-10-14T04:49:33.897Z,-13520.66
2022-10-14T04:50:52.498Z,-14177.72
2022-10-14T04:52:08.228Z,-12877.94
2022-10-14T04:53:34.376Z,-11251.28
2022-10-14T04:54:49.758Z,-10274.75
2022-10-14T04:55:56.097Z,-9950.94
2022-10-14T04:56:58.630Z,-8969.69
2022-10-14T04:58:00.953Z,-10273.06
2022-10-14T04:59:11.205Z,-11255.63
2022-10-14T05:00:48.511Z,-8973.28
2022-10-14T05:02:05.013Z,-8647.69
2022-10-14T05:03:15.424Z,-8648.28
2022-10-14T05:04:18.034Z,-8970.13
2022-10-14T05:05:24.761Z,-10925.19
2022-10-14T05:06:30.517Z,-11575.50
2022-10-14T05:07:33.214Z,-11250.09
2022-10-14T05:08:49.377Z,-10601.25
2022-10-14T05:09:56.221Z,-9948.88
2022-10-14T05:11:15.050Z,-10598.16
2022-10-14T05:12:25.229Z,-13838.78
2022-10-14T05:13:32.728Z,-14817.41
2022-10-14T05:14:39.039Z,-16766.63
2022-10-14T05:15:51.635Z,-16449.53
2022-10-14T05:16:54.259Z,-15148.75
2022-10-14T05:18:02.907Z,-14499.84
2022-10-14T05:19:23.413Z,-12876.84
2022-10-14T05:20:26.882Z,-13520.38
2022-10-14T05:21:31.594Z,-13852.75
2022-10-14T05:22:51.298Z,-12875.16
2022-10-14T05:23:53.787Z,-12877.56
2022-10-14T05:24:56.174Z,-11577.16
2022-10-14T05:25:58.413Z,-11252.59
2022-10-14T05:27:00.817Z,-10924.13
2022-10-14T05:28:05.632Z,-12545.66
2022-10-14T05:29:10.354Z,-12872.97
2022-10-14T05:30:13.954Z,-13200.06
2022-10-14T05:31:20.925Z,-11899.28
2022-10-14T05:32:38.407Z,-11573.28
2022-10-14T05:33:41.917Z,-12224.69
2022-10-14T05:34:44.217Z,-11575.94
2022-10-14T05:35:59.024Z,-11575.84
2022-10-14T05:37:03.877Z,-10926.25
2022-10-14T05:38:13.537Z,-10601.75
2022-10-14T05:39:17.896Z,-9295.88
2022-10-14T05:40:19.998Z,-10275.38
2022-10-14T05:41:22.719Z,-9622.41
2022-10-14T05:42:25.173Z,-9947.22
2022-10-14T05:43:32.735Z,-9619.84
2022-10-14T05:44:36.991Z,-9950.34
2022-10-14T05:45:39.966Z,-9624.31
2022-10-14T05:46:42.146Z,-9947.41
2022-10-14T05:47:44.688Z,-10600.72
2022-10-14T05:48:51.495Z,-9623.75
2022-10-14T05:49:53.657Z,-9622.81
2022-10-14T05:50:55.783Z,-9948.59
2022-10-14T05:52:00.046Z,-10276.16
2022-10-14T05:53:02.232Z,-9949.19
2022-10-14T05:54:12.746Z,-9950.34
2022-10-14T05:55:17.525Z,-9297.53
2022-10-14T05:56:20.984Z,-9624.91
2022-10-14T05:57:23.830Z,-9625.56
2022-10-14T05:58:25.959Z,-8973.09
2022-10-14T05:59:29.901Z,-8972.75
2022-10-14T06:00:32.973Z,-9299.94
2022-10-14T06:01:40.699Z,-8649.16
2022-10-14T06:02:42.847Z,-8322.22
2022-10-14T06:03:51.859Z,-8980.19
2022-10-14T06:04:54.029Z,-7345.38
2022-10-14T06:05:56.306Z,-7345.44
2022-10-14T06:06:59.103Z,-7020.69
2022-10-14T06:08:01.295Z,-6693.25
2022-10-14T06:09:06.612Z,-6692.66
2022-10-14T06:10:12.745Z,-6364.91
2022-10-14T06:11:15.018Z,-6691.47
2022-10-14T06:12:17.390Z,-7344.91
2022-10-14T06:13:20.630Z,-6692.25
2022-10-14T06:14:23.270Z,-6691.66
2022-10-14T06:15:28.304Z,-7016.75
2022-10-14T06:16:31.301Z,-7994.47
2022-10-14T06:17:33.939Z,-8321.19
2022-10-14T06:18:36.827Z,-7997.91
2022-10-14T06:19:39.494Z,-7670.44
2022-10-14T06:20:41.604Z,-7018.53
2022-10-14T06:21:44.801Z,-6691.47
2022-10-14T06:22:46.925Z,-7342.22
2022-10-14T06:23:49.167Z,-7670.13
2022-10-14T06:24:51.284Z,-7015.50
2022-10-14T06:25:53.671Z,-8644.19
2022-10-14T06:26:55.761Z,-8972.75
2022-10-14T06:28:05.480Z,-9305.31
2022-10-14T06:29:07.846Z,-7669.81
2022-10-14T06:30:10.930Z,-7669.66
2022-10-14T06:31:13.173Z,-7992.41
2022-10-14T06:32:15.281Z,-9297.53
2022-10-14T06:33:17.554Z,-8972.91
2022-10-14T06:34:23.021Z,-8973.38
2022-10-14T06:35:25.297Z,-7995.69
2022-10-14T06:36:27.466Z,-7015.59
2022-10-14T06:37:29.565Z,-8320.78
2022-10-14T06:38:31.737Z,-8322.03
2022-10-14T06:39:33.908Z,-7996.34
2022-10-14T06:40:36.850Z,-7017.81
2022-10-14T06:41:38.936Z,-7341.91
2022-10-14T06:42:41.976Z,-7994.63
2022-10-14T06:43:44.090Z,-7344.81
2022-10-14T06:44:46.182Z,-6693.47
2022-10-14T06:45:49.071Z,-6041.19
2022-10-14T06:46:51.186Z,-5387.13
2022-10-14T06:47:53.314Z,-5385.53
2022-10-14T06:48:55.433Z,-7018.09
2022-10-14T06:49:57.572Z,-6040.31
2022-10-14T06:51:01.405Z,-4737.19
2022-10-14T06:52:04.124Z,-3429.22
2022-10-14T06:53:06.414Z,-3754.41
2022-10-14T06:54:08.935Z,-5712.09
2022-10-14T06:55:11.303Z,-6037.88
2022-10-14T06:56:13.662Z,-6363.44
2022-10-14T06:57:16.111Z,-6691.53
2022-10-14T06:58:18.281Z,-6039.31
2022-10-14T06:59:20.703Z,-6038.53
2022-10-14T07:00:22.999Z,-6040.78
2022-10-14T07:01:25.160Z,-4733.53
2022-10-14T07:02:27.382Z,-4406.59
2022-10-14T07:03:29.585Z,-5060.84
2022-10-14T07:04:31.666Z,-3756.44
2022-10-14T07:05:33.874Z,-1470.16
2022-10-14T07:06:37.393Z,-1469.88
2022-10-14T07:07:39.711Z,-1796.31
2022-10-14T07:08:42.691Z,-816.63
2022-10-14T07:09:44.803Z,-490.63
2022-10-14T07:10:47.687Z,3105.22
2022-10-14T07:11:49.818Z,3432.19
2022-10-14T07:12:55.805Z,4087.31
2022-10-14T07:13:58.004Z,5722.97
2022-10-14T07:15:00.282Z,4741.06
2022-10-14T07:16:03.158Z,3432.53
2022-10-14T07:17:08.174Z,2778.59
2022-10-14T07:18:10.262Z,4086.72
2022-10-14T07:19:12.942Z,4414.03
2022-10-14T07:20:15.218Z,6705.22
2022-10-14T07:21:17.465Z,2778.38
2022-10-14T07:22:19.953Z,4741.78
2022-10-14T07:23:22.376Z,8999.63
2022-10-14T07:24:24.573Z,8347.03
2022-10-14T07:25:26.673Z,9329.19
2022-10-14T07:26:32.052Z,10318.44
2022-10-14T07:27:34.333Z,14908.50
2022-10-14T07:28:36.860Z,18515.78
2022-10-14T07:29:39.154Z,13587.44
2022-10-14T07:30:41.358Z,11291.72
2022-10-14T07:31:43.549Z,11622.22
2022-10-14T07:32:45.928Z,11622.94
2022-10-14T07:33:48.046Z,12280.50
2022-10-14T07:34:51.720Z,17539.00
2022-10-14T07:35:53.926Z,20821.91
2022-10-14T07:36:56.034Z,20814.31
2022-10-14T07:37:59.659Z,20163.59
2022-10-14T07:39:02.172Z,27718.44
2022-10-14T07:40:05.082Z,31323.13
2022-10-14T07:41:16.699Z,15553.44
2022-10-14T07:43:26.307Z,16208.22
2022-10-14T07:44:28.483Z,21463.09
2022-10-14T07:45:35.269Z,21795.38
2022-10-14T07:46:40.434Z,24107.19
2022-10-14T07:47:44.079Z,22774.81
2022-10-14T07:48:56.697Z,27391.72
2022-10-14T07:50:01.946Z,26730.53
2022-10-14T07:51:04.191Z,28054.22
2022-10-14T07:52:06.380Z,28716.38
2022-10-14T07:53:08.571Z,36960.56
2022-10-14T07:54:17.629Z,37977.31
2022-10-14T07:55:19.729Z,46224.00
2022-10-14T07:56:22.815Z,49877.94
2022-10-14T07:57:25.476Z,56518.47
2022-10-14T07:58:30.126Z,62837.53
2022-10-14T07:59:32.273Z,60158.38
2022-10-14T08:00:34.506Z,59501.56
2022-10-14T08:01:37.353Z,54194.22
2022-10-14T08:02:39.830Z,62836.56
2022-10-14T08:03:43.467Z,60533.50
2022-10-14T08:04:46.051Z,69777.91
2022-10-14T08:05:50.189Z,60124.25
2022-10-14T08:06:52.892Z,62476.44
2022-10-14T08:07:55.055Z,64808.56
2022-10-14T08:08:57.159Z,71153.59
2022-10-14T08:09:59.354Z,73183.44
2022-10-14T08:11:02.285Z,87569.09
2022-10-14T08:12:04.542Z,93395.72
2022-10-14T08:13:07.106Z,149971.13
2022-10-14T08:14:09.349Z,149937.03
2022-10-14T08:15:11.475Z,150061.34
2022-10-14T08:16:25.521Z,150280.66
2022-10-14T08:17:27.670Z,150205.13
2022-10-14T08:18:30.135Z,150300.19
2022-10-14T08:19:32.351Z,150331.88
2022-10-14T08:20:35.076Z,150413.56
2022-10-14T08:21:37.512Z,150417.28
2022-10-14T08:22:39.696Z,150341.63
2022-10-14T08:23:42.129Z,150212.44
2022-10-14T08:24:44.495Z,150072.28
2022-10-14T08:25:49.135Z,150298.97
2022-10-14T08:26:56.957Z,150336.75
2022-10-14T08:27:59.093Z,150318.50
2022-10-14T08:29:04.483Z,150344.06
2022-10-14T08:30:10.186Z,150189.31
2022-10-14T08:31:13.131Z,150284.38
2022-10-14T08:32:15.418Z,150302.63
2022-10-14T08:33:17.542Z,150134.41
2022-10-14T08:34:21.182Z,150134.41
2022-10-14T08:35:23.416Z,150119.81
2022-10-14T08:36:25.617Z,150015.00
2022-10-14T08:37:27.749Z,150019.88
2022-10-14T08:38:29.900Z,150046.69
2022-10-14T08:39:32.112Z,149990.69
2022-10-14T08:40:55.729Z,149965.06
2022-10-14T08:42:07.630Z,149832.34
2022-10-14T08:43:35.323Z,149973.56
2022-10-14T08:44:47.414Z,149910.25
2022-10-14T08:45:58.075Z,149900.53
2022-10-14T08:47:03.231Z,149941.91
2022-10-14T08:48:14.373Z,149857.91
2022-10-14T08:49:28.644Z,149786.06
2022-10-14T08:50:44.441Z,150055.25
2022-10-14T08:51:51.735Z,150149.00
2022-10-14T08:53:00.419Z,150080.78
2022-10-14T08:54:11.081Z,150230.72
2022-10-14T08:55:28.513Z,150294.09
2022-10-14T08:56:30.702Z,150275.81
2022-10-14T08:57:43.108Z,150080.78
2022-10-14T08:58:54.518Z,150134.41
2022-10-14T08:59:56.681Z,150073.50
2022-10-14T09:01:04.485Z,150134.41
2022-10-14T09:02:19.451Z,150288.00
2022-10-14T09:03:27.065Z,150305.06
2022-10-14T09:04:34.089Z,150463.59
2022-10-14T09:05:39.515Z,150520.91
2022-10-14T09:06:47.814Z,150611.16
2022-10-14T09:07:52.249Z,150630.69
2022-10-14T09:09:23.925Z,150495.28
2022-10-14T09:10:37.587Z,150446.50
2022-10-14T09:11:43.798Z,150356.28
2022-10-14T09:12:46.025Z,150322.13
2022-10-14T09:14:13.257Z,150383.16
2022-10-14T09:15:30.690Z,150379.44
2022-10-14T09:16:36.615Z,150239.25
2022-10-14T09:17:46.121Z,150270.94
2022-10-14T09:19:00.781Z,150289.22
2022-10-14T09:20:05.269Z,150256.31
2022-10-14T09:21:40.468Z,150258.75
2022-10-14T09:23:02.406Z,150258.75
2022-10-14T09:24:37.523Z,150318.50
2022-10-14T09:25:43.926Z,150085.66
2022-10-14T09:26:50.888Z,150129.56
2022-10-14T09:27:53.230Z,150127.13
2022-10-14T09:28:56.097Z,150101.53
2022-10-14T09:30:04.876Z,150241.69
2022-10-14T09:31:11.544Z,150255.09
2022-10-14T09:32:37.118Z,150341.63
2022-10-14T09:33:42.586Z,150280.66
2022-10-14T09:34:48.328Z,150344.06
2022-10-14T09:35:51.043Z,150235.59
2022-10-14T09:36:53.747Z,150379.44
2022-10-14T09:37:56.865Z,150353.84
2022-10-14T09:39:03.639Z,150195.38
2022-10-14T09:40:30.095Z,150430.66
2022-10-14T09:41:32.465Z,150463.59
2022-10-14T09:42:37.779Z,150653.91
2022-10-14T09:44:21.493Z,150600.22
2022-10-14T09:45:25.826Z,150600.22
2022-10-14T09:46:28.054Z,150494.06
2022-10-14T09:47:30.602Z,150178.25
2022-10-14T09:48:48.008Z,150294.09
2022-10-14T09:49:51.949Z,150266.06
2022-10-14T09:50:57.408Z,150302.63
2022-10-14T09:52:02.669Z,150261.19
2022-10-14T09:53:14.273Z,150341.63
2022-10-14T09:54:26.384Z,150288.00
2022-10-14T09:55:28.770Z,150320.94
2022-10-14T09:56:38.965Z,150318.50
2022-10-14T09:57:44.544Z,150336.75
2022-10-14T09:58:51.033Z,150272.16
2022-10-14T10:00:01.805Z,150389.22
2022-10-14T10:01:12.836Z,150368.44
2022-10-14T10:02:32.264Z,150388.00
2022-10-14T10:03:39.814Z,150283.09
2022-10-14T10:04:47.339Z,150280.66
2022-10-14T10:05:59.765Z,150253.91
2022-10-14T10:07:05.899Z,150190.53
2022-10-14T10:08:14.183Z,150162.44
2022-10-14T10:09:19.431Z,150141.72
2022-10-14T10:10:22.821Z,150058.91
2022-10-14T10:11:37.331Z,150136.84
2022-10-14T10:12:46.163Z,149898.09
2022-10-14T10:13:48.291Z,149996.78
2022-10-14T10:15:05.322Z,150069.84
2022-10-14T10:16:19.640Z,150099.09
2022-10-14T10:17:22.240Z,150058.91
2022-10-14T10:18:24.594Z,150049.13
2022-10-14T10:19:29.869Z,150069.84
2022-10-14T10:20:33.308Z,150046.69
2022-10-14T10:21:36.783Z,150024.78
2022-10-14T10:22:39.913Z,150061.34
2022-10-14T10:24:02.540Z,150136.84
2022-10-14T10:25:05.921Z,150069.84
2022-10-14T10:26:21.406Z,150131.97
2022-10-14T10:27:27.459Z,150097.88
2022-10-14T10:28:32.936Z,150097.88
2022-10-14T10:29:35.374Z,150146.59
2022-10-14T10:30:48.497Z,150247.75
2022-10-14T10:32:16.976Z,150346.50
2022-10-14T10:33:28.169Z,150327.00
2022-10-14T10:34:53.305Z,150405.06
2022-10-14T10:36:44.340Z,150400.19
2022-10-14T10:38:01.147Z,150363.56
2022-10-14T10:39:17.951Z,150351.41
2022-10-14T10:40:30.169Z,150369.66
2022-10-14T10:41:44.039Z,150388.00
2022-10-14T10:43:11.771Z,150356.28
2022-10-14T10:44:32.816Z,150336.75
2022-10-14T10:46:08.327Z,150225.84
2022-10-14T10:47:26.546Z,150267.28
2022-10-14T10:48:39.943Z,150283.09
2022-10-14T10:49:59.793Z,150329.44
2022-10-14T10:51:28.611Z,150197.81
2022-10-14T10:52:52.531Z,150295.31
2022-10-14T10:54:08.134Z,150190.53
2022-10-14T10:55:13.197Z,150156.34
2022-10-14T10:56:22.466Z,150210.00
2022-10-14T10:57:31.042Z,150273.38
2022-10-14T10:58:52.253Z,150280.66
2022-10-14T11:00:12.995Z,150231.94
2022-10-14T11:01:32.259Z,150303.84
2022-10-14T11:02:47.919Z,150320.94
2022-10-14T11:04:25.941Z,150402.63
2022-10-14T11:05:49.013Z,150458.72
2022-10-14T11:07:28.025Z,150395.31
2022-10-14T11:09:06.099Z,150395.31
2022-10-14T11:10:56.133Z,150341.63
2022-10-14T11:12:14.187Z,150434.31
2022-10-14T11:13:45.198Z,150388.00
2022-10-14T11:16:55.448Z,150351.41
2022-10-14T11:18:03.018Z,150257.53
2022-10-14T11:19:33.424Z,150214.84
2022-10-14T11:20:54.100Z,150105.16
2022-10-14T11:22:28.780Z,150290.44
2022-10-14T11:23:34.779Z,150273.38
2022-10-14T11:25:03.035Z,150314.78
2022-10-14T11:26:18.540Z,150289.22
2022-10-14T11:27:39.367Z,150331.88
2022-10-14T11:28:51.193Z,150327.00
2022-10-14T11:29:53.825Z,150214.84
2022-10-14T11:30:59.041Z,150256.31
2022-10-14T11:32:19.156Z,150284.38
2022-10-14T11:34:00.098Z,150277.03
2022-10-14T11:37:09.863Z,150275.81
2022-10-14T11:38:18.705Z,150144.16
2022-10-14T11:39:48.257Z,150266.06
2022-10-14T11:40:58.063Z,150253.91
2022-10-14T11:42:24.499Z,150258.75
2022-10-14T11:43:44.053Z,150233.16
2022-10-14T11:44:49.576Z,150179.47
2022-10-14T11:46:03.584Z,150279.44
2022-10-14T11:47:10.002Z,150236.81
2022-10-14T11:48:39.823Z,150283.09
2022-10-14T11:49:55.684Z,150278.22
2022-10-14T11:51:23.299Z,150292.88
2022-10-14T11:52:32.718Z,150292.88
2022-10-14T11:54:11.297Z,150358.72
2022-10-14T11:55:23.575Z,150370.88
2022-10-14T11:56:25.750Z,150331.88
2022-10-14T11:57:44.361Z,150341.63
2022-10-14T11:58:47.824Z,150323.34
2022-10-14T12:00:08.738Z,150312.34
2022-10-14T12:01:35.664Z,150345.28
2022-10-14T12:02:56.480Z,150373.31
2022-10-14T12:04:10.800Z,150419.72
2022-10-14T12:06:02.112Z,150494.06
2022-10-14T12:07:12.675Z,150536.75
2022-10-14T12:08:26.476Z,150508.69
2022-10-14T12:09:42.310Z,150612.38
2022-10-14T12:10:47.807Z,150575.81
2022-10-14T12:11:54.073Z,150653.91
2022-10-14T12:12:57.252Z,150641.66
2022-10-14T12:14:05.377Z,150727.09
2022-10-14T12:15:16.535Z,150771.03
2022-10-14T12:16:22.392Z,150788.13
2022-10-14T12:17:32.265Z,150824.75
2022-10-14T12:19:43.210Z,150753.97
2022-10-14T12:21:20.819Z,150802.75
2022-10-14T12:22:26.941Z,150678.25
2022-10-14T12:23:39.402Z,150731.94
2022-10-14T12:24:50.509Z,150731.94
2022-10-14T12:26:13.450Z,150719.78
2022-10-14T12:27:16.776Z,150650.25
2022-10-14T12:28:20.224Z,150497.72
2022-10-14T12:29:31.093Z,150579.47
2022-10-14T12:30:39.978Z,150583.16
2022-10-14T12:31:47.766Z,150463.59
2022-10-14T12:33:01.783Z,150539.19
2022-10-14T12:34:15.559Z,150546.47
2022-10-14T12:35:47.620Z,150546.47
2022-10-14T12:36:52.621Z,150424.59
2022-10-14T12:38:03.636Z,150414.78
2022-10-14T12:39:18.038Z,150398.97
2022-10-14T12:40:25.646Z,150408.72
2022-10-14T12:41:40.620Z,150392.88
2022-10-14T12:43:21.508Z,150356.28
2022-10-14T12:44:34.211Z,150366.00
2022-10-14T12:45:36.596Z,150273.38
2022-10-14T12:46:44.441Z,150317.28
2022-10-14T12:47:47.048Z,150283.09
2022-10-14T12:48:54.813Z,150285.59
2022-10-14T12:50:02.558Z,150334.31
2022-10-14T12:51:12.033Z,150341.63
2022-10-14T12:52:21.152Z,150313.56
2022-10-14T12:53:30.653Z,150270.94
2022-10-14T12:54:36.753Z,150319.72
2022-10-14T12:55:50.067Z,150312.34
2022-10-14T12:56:58.097Z,150322.13
2022-10-14T12:58:02.878Z,150283.09
2022-10-14T12:59:08.985Z,150284.38
2022-10-14T13:00:21.708Z,150341.63
2022-10-14T13:01:23.989Z,150250.19
2022-10-14T13:02:37.337Z,150219.78
2022-10-14T13:03:46.119Z,150218.56
2022-10-14T13:04:51.926Z,150238.03
2022-10-14T13:06:31.556Z,150289.22
2022-10-14T13:08:20.971Z,150300.19
2022-10-14T13:09:35.126Z,150207.56
2022-10-14T13:10:50.310Z,150227.06
2022-10-14T13:11:52.399Z,150180.69
2022-10-14T13:12:54.676Z,150199.03
2022-10-14T13:14:01.277Z,150233.16
2022-10-14T13:15:49.381Z,150307.50
2022-10-14T13:16:53.117Z,150212.44
2022-10-14T13:17:56.165Z,150221.00
2022-10-14T13:18:59.793Z,150266.06
2022-10-14T13:20:04.468Z,150197.81
2022-10-14T13:21:09.458Z,150235.59